Terminal Aerodrome Forecast
Issued by NWS Knoxville/Tri Cities, TN

Home | Current Version | Previous Version | Text Only | Print | Product List | Glossary On
Versions: 1 2 3 4 5 6 7 8 9 10 11 12 13 14 15 16 17 18 19 20 21 22 23 24 25 26 27 28 29 30 31 32 33 34 35
000
FTUS44 KMRX 231723
TAFTRI
TAF
KTRI 231723Z 2318/2418 22007KT P6SM VCTS SCT025CB BKN120
      TEMPO 2318/2320 32010G20KT 4SM -TSRA BKN025CB
     FM240100 27003KT P6SM VCTS SCT035CB BKN150 BKN250
     FM240600 00000KT 5SM BR VCSH BKN025 OVC100
     FM241000 00000KT 2SM BR BKN007
     FM241300 24005KT P6SM VCTS BKN030CB=

USA.gov is the U.S. government's official web portal to all federal, state and local government web resources and services.